createdAt,value
2023-04-11T00:01:00.763Z,7.77
2023-04-11T00:03:29.168Z,7.73
2023-04-11T00:05:57.493Z,7.71
2023-04-11T00:08:25.756Z,7.76
2023-04-11T00:10:55.505Z,7.74
2023-04-11T00:13:24.453Z,7.72
2023-04-11T00:15:55.789Z,7.72
2023-04-11T00:18:25.970Z,7.71
2023-04-11T00:20:54.215Z,7.66
2023-04-11T00:23:22.416Z,7.62
2023-04-11T00:25:50.954Z,7.62
2023-04-11T00:28:20.624Z,7.63
2023-04-11T00:30:48.705Z,7.60
2023-04-11T00:33:16.878Z,7.58
2023-04-11T00:35:45.799Z,7.60
2023-04-11T00:38:13.977Z,7.59
2023-04-11T00:40:42.095Z,7.57
2023-04-11T00:43:10.340Z,7.55
2023-04-11T00:45:40.067Z,7.53
2023-04-11T00:48:08.502Z,7.55
2023-04-11T00:50:41.201Z,7.59
2023-04-11T00:53:10.442Z,7.56
2023-04-11T00:55:38.482Z,7.56
2023-04-11T00:58:08.507Z,7.57
2023-04-11T01:00:38.886Z,7.57
2023-04-11T01:03:08.527Z,7.57
2023-04-11T01:05:36.978Z,7.58
2023-04-11T01:08:05.762Z,7.55
2023-04-11T01:10:34.550Z,7.56
2023-04-11T01:13:02.847Z,7.53
2023-04-11T01:15:31.481Z,7.53
2023-04-11T01:18:02.501Z,7.53
2023-04-11T01:20:33.385Z,7.49
2023-04-11T01:23:03.799Z,7.45
2023-04-11T01:25:33.429Z,7.40
2023-04-11T01:28:05.118Z,7.37
2023-04-11T01:30:33.409Z,7.33
2023-04-11T01:33:01.512Z,7.36
2023-04-11T01:35:29.817Z,7.35
2023-04-11T01:37:57.981Z,7.36
2023-04-11T01:40:26.540Z,7.36
2023-04-11T01:42:56.582Z,7.35
2023-04-11T01:45:26.547Z,7.35
2023-04-11T01:47:55.152Z,7.34
2023-04-11T01:50:23.343Z,7.35
2023-04-11T01:52:52.197Z,7.31
2023-04-11T01:55:23.961Z,7.27
2023-04-11T01:57:52.146Z,7.25
2023-04-11T02:00:22.652Z,7.29
2023-04-11T02:02:51.084Z,7.23
2023-04-11T02:05:20.652Z,7.23
2023-04-11T02:07:48.856Z,7.27
2023-04-11T02:10:16.917Z,7.23
2023-04-11T02:12:45.216Z,7.21
2023-04-11T02:15:13.306Z,7.26
2023-04-11T02:17:45.420Z,7.27
2023-04-11T02:20:14.650Z,7.27
2023-04-11T02:22:43.033Z,7.28
2023-04-11T02:25:11.380Z,7.27
2023-04-11T02:27:39.554Z,7.27
2023-04-11T02:30:08.849Z,7.27
2023-04-11T02:32:38.378Z,7.26
2023-04-11T02:35:08.927Z,7.26
2023-04-11T02:37:37.526Z,7.25
2023-04-11T02:40:06.575Z,7.21
2023-04-11T02:42:34.941Z,7.24
2023-04-11T02:45:03.976Z,7.21
2023-04-11T02:47:32.215Z,7.26
2023-04-11T02:50:02.297Z,7.26
2023-04-11T02:52:33.758Z,7.30
2023-04-11T02:55:01.787Z,7.26
2023-04-11T02:57:29.921Z,7.26
2023-04-11T02:59:58.003Z,7.26
2023-04-11T03:02:26.253Z,7.28
2023-04-11T03:04:56.470Z,7.30
2023-04-11T03:07:25.113Z,7.32
2023-04-11T03:09:54.681Z,7.33
2023-04-11T03:12:22.988Z,7.32
2023-04-11T03:14:51.235Z,7.31
2023-04-11T03:17:19.458Z,7.28
2023-04-11T03:19:47.774Z,7.28
2023-04-11T03:22:16.017Z,7.28
2023-04-11T03:24:44.219Z,7.27
2023-04-11T03:27:13.642Z,7.24
2023-04-11T03:29:41.688Z,7.23
2023-04-11T03:32:09.883Z,7.24
2023-04-11T03:34:37.989Z,7.23
2023-04-11T03:37:06.310Z,7.17
2023-04-11T03:39:37.898Z,7.17
2023-04-11T03:42:06.182Z,7.15
2023-04-11T03:44:37.083Z,7.15
2023-04-11T03:47:08.054Z,7.16
2023-04-11T03:49:36.384Z,7.17
2023-04-11T03:52:05.420Z,7.17
2023-04-11T03:54:33.625Z,7.13
2023-04-11T03:57:01.925Z,7.10
2023-04-11T03:59:30.526Z,7.10
2023-04-11T04:02:00.236Z,7.09
2023-04-11T04:04:29.064Z,7.12
2023-04-11T04:06:57.199Z,7.11
2023-04-11T04:09:25.568Z,7.13
2023-04-11T04:11:53.657Z,7.10
2023-04-11T04:14:21.696Z,7.09
2023-04-11T04:16:50.025Z,7.07
2023-04-11T04:19:19.547Z,7.02
2023-04-11T04:21:47.825Z,7.04
2023-04-11T04:24:16.001Z,7.02
2023-04-11T04:26:44.141Z,7.02
2023-04-11T04:29:12.817Z,7.03
2023-04-11T04:31:41.646Z,7.05
2023-04-11T04:34:11.018Z,7.01
2023-04-11T04:36:47.992Z,7.03
2023-04-11T04:39:19.806Z,7.01
2023-04-11T04:41:49.428Z,7.01
2023-04-11T04:44:18.513Z,7.00
2023-04-11T04:46:46.557Z,7.02
2023-04-11T04:49:14.686Z,7.01
2023-04-11T04:51:44.284Z,6.98
2023-04-11T04:54:12.512Z,6.99
2023-04-11T04:56:41.592Z,6.99
2023-04-11T04:59:14.740Z,7.01
2023-04-11T05:01:43.127Z,7.01
2023-04-11T05:04:12.023Z,7.01
2023-04-11T05:06:40.412Z,7.05
2023-04-11T05:09:10.021Z,7.04
2023-04-11T05:11:38.267Z,7.03
2023-04-11T05:14:06.717Z,7.04
2023-04-11T05:16:34.927Z,7.05
2023-04-11T05:19:02.953Z,7.03
2023-04-11T05:21:31.074Z,7.03
2023-04-11T05:23:59.242Z,7.04
2023-04-11T05:26:28.668Z,7.03
2023-04-11T05:28:56.954Z,6.99
2023-04-11T05:31:25.874Z,6.99
2023-04-11T05:33:54.491Z,6.98
2023-04-11T05:36:22.794Z,7.02
2023-04-11T05:38:51.222Z,7.04
2023-04-11T05:41:21.290Z,7.09
2023-04-11T05:43:51.012Z,7.10
2023-04-11T05:46:19.270Z,7.09
2023-04-11T05:48:47.554Z,7.08
2023-04-11T05:51:15.770Z,7.09
2023-04-11T05:53:44.111Z,7.14
2023-04-11T05:56:13.050Z,7.18
2023-04-11T05:58:43.505Z,7.23
2023-04-11T06:01:18.803Z,7.25
2023-04-11T06:03:47.495Z,7.26
2023-04-11T06:06:16.085Z,7.27
2023-04-11T06:08:44.534Z,7.28
2023-04-11T06:11:12.612Z,7.33
2023-04-11T06:13:40.713Z,7.35
2023-04-11T06:16:09.747Z,7.37
2023-04-11T06:18:39.292Z,7.42
2023-04-11T06:21:07.736Z,7.42
2023-04-11T06:23:35.875Z,7.42
2023-04-11T06:26:04.025Z,7.47
2023-04-11T06:28:32.163Z,7.50
2023-04-11T06:31:00.428Z,7.55
2023-04-11T06:33:28.678Z,7.58
2023-04-11T06:35:58.349Z,7.66
2023-04-11T06:38:26.544Z,7.67
2023-04-11T06:40:56.346Z,7.71
2023-04-11T06:43:24.533Z,7.79
2023-04-11T06:45:52.954Z,7.87
2023-04-11T06:48:21.301Z,7.96
2023-04-11T06:50:49.780Z,7.94
2023-04-11T06:53:19.375Z,8.02
2023-04-11T06:55:49.965Z,8.06
2023-04-11T06:58:18.375Z,8.08
2023-04-11T07:00:48.166Z,8.11
2023-04-11T07:03:16.480Z,8.16
2023-04-11T07:05:44.787Z,8.18
2023-04-11T07:08:12.889Z,8.23
2023-04-11T07:10:42.385Z,8.31
2023-04-11T07:13:10.688Z,8.34
2023-04-11T07:15:38.802Z,8.38
2023-04-11T07:18:07.065Z,8.42
2023-04-11T07:20:36.180Z,8.49
2023-04-11T07:23:04.594Z,8.53
2023-04-11T07:25:33.819Z,8.64
2023-04-11T07:28:10.953Z,8.74
2023-04-11T07:30:39.127Z,8.81
2023-04-11T07:33:07.202Z,8.88
2023-04-11T07:35:35.814Z,8.99
2023-04-11T07:38:04.408Z,9.08
2023-04-11T07:40:33.346Z,9.10
2023-04-11T07:43:01.924Z,9.12
2023-04-11T07:45:31.711Z,9.17
2023-04-11T07:47:59.906Z,9.25
2023-04-11T07:50:28.152Z,9.31
2023-04-11T07:52:56.916Z,9.36
2023-04-11T07:55:25.090Z,9.41
2023-04-11T07:57:53.268Z,9.46
2023-04-11T08:00:22.734Z,9.53
2023-04-11T08:02:53.281Z,9.56
2023-04-11T08:05:21.691Z,9.60
2023-04-11T08:07:50.000Z,9.69
2023-04-11T08:10:18.260Z,9.75
2023-04-11T08:12:46.525Z,9.76
2023-04-11T08:15:15.085Z,9.82
2023-04-11T08:17:43.872Z,9.82
2023-04-11T08:20:14.230Z,9.82
2023-04-11T08:22:44.867Z,9.83
2023-04-11T08:25:13.962Z,9.83
2023-04-11T08:27:42.689Z,9.80
2023-04-11T08:30:11.211Z,9.85
2023-04-11T08:33:23.976Z,9.80
2023-04-11T08:35:53.546Z,9.87
2023-04-11T08:38:22.099Z,9.92
2023-04-11T08:40:50.229Z,9.92
2023-04-11T08:43:18.468Z,9.94
2023-04-11T08:45:46.678Z,9.99
2023-04-11T08:48:14.896Z,10.01
2023-04-11T08:50:43.425Z,9.98
2023-04-11T08:53:13.402Z,9.98
2023-04-11T08:55:48.019Z,9.89
2023-04-11T08:58:16.302Z,9.88
2023-04-11T09:00:44.442Z,9.91
2023-04-11T09:03:13.937Z,9.93
2023-04-11T09:05:44.545Z,9.90
2023-04-11T09:08:15.282Z,9.94
2023-04-11T09:10:46.435Z,9.93
2023-04-11T09:13:22.561Z,9.94
2023-04-11T09:16:05.872Z,9.94
2023-04-11T09:18:35.178Z,9.96
2023-04-11T09:21:06.116Z,9.94
2023-04-11T09:23:35.994Z,9.89
2023-04-11T09:26:06.247Z,9.84
2023-04-11T09:28:42.807Z,9.84
2023-04-11T09:31:13.222Z,9.86
2023-04-11T09:33:54.007Z,9.83
2023-04-11T09:36:23.922Z,9.88
2023-04-11T09:38:54.149Z,9.82
2023-04-11T09:41:31.460Z,9.85
2023-04-11T09:44:00.153Z,9.80
2023-04-11T09:46:28.505Z,9.83
2023-04-11T09:48:57.226Z,9.83
2023-04-11T09:53:59.014Z,9.92
2023-04-11T09:56:27.909Z,10.00
2023-04-11T09:58:57.377Z,10.07
2023-04-11T10:01:26.483Z,10.08
2023-04-11T10:03:54.955Z,10.09
2023-04-11T10:06:33.748Z,10.11
2023-04-11T10:09:18.351Z,10.15
2023-04-11T10:11:47.099Z,10.24
2023-04-11T10:14:43.558Z,10.31
2023-04-11T10:17:13.910Z,10.60
2023-04-11T10:19:42.997Z,10.84
2023-04-11T10:22:11.343Z,11.10
2023-04-11T10:24:40.862Z,11.35
2023-04-11T10:27:08.955Z,11.40
2023-04-11T10:29:53.717Z,11.32
2023-04-11T10:32:23.773Z,11.22
2023-04-11T10:35:29.693Z,11.06
2023-04-11T10:37:57.924Z,10.93
2023-04-11T10:40:27.492Z,10.89
2023-04-11T10:42:57.493Z,10.90
2023-04-11T10:45:27.494Z,10.85
2023-04-11T10:48:03.985Z,10.75
2023-04-11T10:50:42.186Z,10.70
2023-04-11T10:53:14.370Z,10.65
2023-04-11T10:55:48.795Z,10.56
2023-04-11T10:58:19.873Z,10.58
2023-04-11T11:01:26.191Z,10.55
2023-04-11T11:04:02.004Z,10.53
2023-04-11T11:06:31.175Z,10.55
2023-04-11T11:09:00.230Z,10.56
2023-04-11T11:11:29.791Z,10.59
2023-04-11T11:14:00.275Z,10.65
2023-04-11T11:16:28.559Z,10.66
2023-04-11T11:18:59.289Z,10.68
2023-04-11T11:21:28.998Z,10.71
2023-04-11T11:24:01.598Z,10.71
2023-04-11T11:26:42.583Z,10.74
2023-04-11T11:29:12.361Z,10.75
2023-04-11T11:31:42.136Z,10.78
2023-04-11T11:34:22.989Z,10.78
2023-04-11T11:36:52.888Z,10.75
2023-04-11T11:39:22.829Z,10.78
2023-04-11T11:41:53.697Z,10.83
2023-04-11T11:44:25.675Z,10.89
2023-04-11T11:47:03.360Z,10.93
2023-04-11T11:49:45.661Z,10.95
2023-04-11T11:52:14.122Z,11.05
2023-04-11T11:54:46.037Z,11.09
2023-04-11T11:57:22.955Z,11.13
2023-04-11T11:59:54.991Z,11.14
2023-04-11T12:02:24.199Z,11.15
2023-04-11T12:04:57.934Z,11.16
2023-04-11T12:07:26.813Z,11.20
2023-04-11T12:09:59.033Z,11.22
2023-04-11T12:12:36.181Z,11.24
2023-04-11T12:15:04.842Z,11.27
2023-04-11T12:17:37.802Z,11.16
2023-04-11T12:20:08.107Z,11.18
2023-04-11T12:22:36.849Z,11.21
2023-04-11T12:25:09.093Z,11.17
2023-04-11T12:27:40.048Z,11.17
2023-04-11T12:30:09.878Z,11.21
2023-04-11T12:32:38.912Z,11.23
2023-04-11T12:35:08.318Z,11.24
2023-04-11T12:37:36.439Z,11.26
2023-04-11T12:40:09.477Z,11.28
2023-04-11T12:42:49.559Z,11.25
2023-04-11T12:45:24.812Z,11.23
2023-04-11T12:47:53.333Z,11.18
2023-04-11T12:50:23.373Z,11.18
2023-04-11T12:52:51.747Z,11.21
2023-04-11T12:55:20.115Z,11.18
2023-04-11T12:57:49.744Z,11.19
2023-04-11T13:00:18.856Z,11.11
2023-04-11T13:02:47.594Z,11.08
2023-04-11T13:05:16.771Z,11.03
2023-04-11T13:07:46.731Z,11.07
2023-04-11T13:10:16.948Z,11.07
2023-04-11T13:12:46.574Z,11.09
2023-04-11T13:15:17.578Z,11.00
2023-04-11T13:17:45.908Z,10.96
2023-04-11T13:20:14.476Z,10.94
2023-04-11T13:22:43.936Z,10.93
2023-04-11T13:25:13.300Z,10.91
2023-04-11T13:27:42.475Z,10.83
2023-04-11T13:30:11.951Z,10.79
2023-04-11T13:32:41.576Z,10.75
2023-04-11T13:35:16.326Z,10.79
2023-04-11T13:37:44.497Z,10.83
2023-04-11T13:40:13.521Z,10.79
2023-04-11T13:42:42.198Z,10.84
2023-04-11T13:45:11.118Z,10.96
2023-04-11T13:47:39.458Z,11.04
2023-04-11T13:50:10.443Z,11.08
2023-04-11T13:52:38.735Z,11.17
2023-04-11T13:55:07.835Z,11.29
2023-04-11T13:57:36.205Z,11.31
2023-04-11T14:00:11.633Z,11.24
2023-04-11T14:02:41.243Z,11.08
2023-04-11T14:05:13.180Z,11.12
2023-04-11T14:07:41.526Z,11.09
2023-04-11T14:10:10.528Z,11.08
2023-04-11T14:12:39.248Z,11.08
2023-04-11T14:15:09.194Z,11.06
2023-04-11T14:17:37.408Z,11.06
2023-04-11T14:20:07.963Z,11.07
2023-04-11T14:22:37.641Z,11.03
2023-04-11T14:25:06.997Z,11.05
2023-04-11T14:27:35.218Z,10.97
2023-04-11T14:30:03.622Z,10.92
2023-04-11T14:32:31.821Z,10.83
2023-04-11T14:35:02.016Z,10.85
2023-04-11T14:37:30.516Z,10.81
2023-04-11T14:39:59.945Z,10.81
2023-04-11T14:42:28.350Z,10.74
2023-04-11T14:44:56.629Z,10.75
2023-04-11T14:47:24.871Z,10.80
2023-04-11T14:49:53.099Z,10.76
2023-04-11T14:52:21.722Z,10.80
2023-04-11T14:54:50.047Z,10.88
2023-04-11T14:57:19.701Z,10.92
2023-04-11T14:59:48.624Z,10.93
2023-04-11T15:02:16.985Z,10.91
2023-04-11T15:04:45.402Z,10.89
2023-04-11T15:07:13.522Z,10.90
2023-04-11T15:09:42.138Z,10.87
2023-04-11T15:12:10.364Z,10.85
2023-04-11T15:14:39.842Z,10.78
2023-04-11T15:17:08.019Z,10.77
2023-04-11T15:19:36.497Z,10.78
2023-04-11T15:22:04.725Z,10.77
2023-04-11T15:24:32.817Z,10.75
2023-04-11T15:27:02.216Z,10.74
2023-04-11T15:29:30.848Z,10.70
2023-04-11T15:32:03.449Z,10.66
2023-04-11T15:34:31.601Z,10.63
2023-04-11T15:36:59.801Z,10.69
2023-04-11T15:39:28.270Z,10.65
2023-04-11T15:41:56.615Z,10.59
2023-04-11T15:44:24.760Z,10.58
2023-04-11T15:46:53.009Z,10.60
2023-04-11T15:49:22.677Z,10.58
2023-04-11T15:51:50.720Z,10.55
2023-04-11T15:54:18.851Z,10.57
2023-04-11T15:56:47.122Z,10.56
2023-04-11T15:59:16.143Z,10.56
2023-04-11T16:01:44.845Z,10.57
2023-04-11T16:04:13.362Z,10.56
2023-04-11T16:06:42.946Z,10.56
2023-04-11T16:09:11.286Z,10.53
2023-04-11T16:11:40.162Z,10.55
2023-04-11T16:14:08.896Z,10.52
2023-04-11T16:16:37.168Z,10.55
2023-04-11T16:19:05.428Z,10.54
2023-04-11T16:21:33.660Z,10.58
2023-04-11T16:24:03.074Z,10.54
2023-04-11T16:26:31.386Z,10.56
2023-04-11T16:28:59.672Z,10.53
2023-04-11T16:31:27.822Z,10.54
2023-04-11T16:33:56.390Z,10.55
2023-04-11T16:36:24.904Z,10.55
2023-04-11T16:38:53.256Z,10.56
2023-04-11T16:41:22.992Z,10.56
2023-04-11T16:43:51.144Z,10.56
2023-04-11T16:46:19.494Z,10.52
2023-04-11T16:48:47.710Z,10.52
2023-04-11T16:51:18.404Z,10.51
2023-04-11T16:53:47.529Z,10.49
2023-04-11T16:56:16.840Z,10.48
2023-04-11T16:58:46.392Z,10.49
2023-04-11T17:01:14.728Z,10.53
2023-04-11T17:03:44.858Z,10.52
2023-04-11T17:06:14.618Z,10.52
2023-04-11T17:08:43.628Z,10.49
2023-04-11T17:11:12.363Z,10.44
2023-04-11T17:13:41.621Z,10.11
2023-04-11T17:16:11.204Z,9.90
2023-04-11T17:18:39.566Z,9.83
2023-04-11T17:21:08.306Z,9.75
2023-04-11T17:23:42.934Z,9.57
2023-04-11T17:26:11.931Z,9.28
2023-04-11T17:28:40.969Z,9.23
2023-04-11T17:31:17.592Z,9.13
2023-04-11T17:33:46.096Z,9.03
2023-04-11T17:36:14.466Z,8.91
2023-04-11T17:38:43.509Z,8.78
2023-04-11T17:41:14.949Z,8.73
2023-04-11T17:43:43.897Z,8.59
2023-04-11T17:46:14.009Z,8.52
2023-04-11T17:48:42.349Z,8.50
2023-04-11T17:51:10.646Z,8.51
2023-04-11T17:53:38.895Z,8.45
2023-04-11T17:56:07.843Z,8.44
2023-04-11T17:58:36.242Z,8.45
2023-04-11T18:01:05.151Z,8.40
2023-04-11T18:03:35.564Z,8.39
2023-04-11T18:06:04.172Z,8.42
2023-04-11T18:08:49.171Z,8.45
2023-04-11T18:11:19.435Z,8.42
2023-04-11T18:13:50.034Z,8.36
2023-04-11T18:16:19.072Z,8.34
2023-04-11T18:18:48.896Z,8.36
2023-04-11T18:21:17.656Z,8.25
2023-04-11T18:23:46.091Z,8.26
2023-04-11T18:26:14.223Z,8.30
2023-04-11T18:28:42.327Z,8.29
2023-04-11T18:31:11.201Z,8.27
2023-04-11T18:33:42.436Z,8.17
2023-04-11T18:36:12.827Z,8.15
2023-04-11T18:38:41.282Z,8.06
2023-04-11T18:41:09.806Z,8.12
2023-04-11T18:43:38.960Z,8.10
2023-04-11T18:46:07.850Z,8.12
2023-04-11T18:48:36.602Z,8.16
2023-04-11T18:51:05.286Z,8.20
2023-04-11T18:53:36.744Z,8.13
2023-04-11T18:56:05.237Z,8.14
2023-04-11T18:58:39.627Z,8.12
2023-04-11T19:01:15.500Z,8.17
2023-04-11T19:03:44.155Z,8.20
2023-04-11T19:06:13.118Z,8.17
2023-04-11T19:08:42.811Z,8.19
2023-04-11T19:11:11.290Z,8.19
2023-04-11T19:13:39.517Z,8.13
2023-04-11T19:16:08.156Z,8.08
2023-04-11T19:18:36.305Z,8.06
2023-04-11T19:21:04.688Z,7.99
2023-04-11T19:23:33.049Z,7.98
2023-04-11T19:26:02.880Z,8.00
2023-04-11T19:28:31.085Z,7.98
2023-04-11T19:30:59.165Z,7.98
2023-04-11T19:33:27.328Z,7.92
2023-04-11T19:35:55.563Z,7.82
2023-04-11T19:38:23.759Z,7.81
2023-04-11T19:40:52.088Z,7.77
2023-04-11T19:43:22.151Z,7.68
2023-04-11T19:45:50.441Z,7.64
2023-04-11T19:48:18.533Z,7.63
2023-04-11T19:50:46.756Z,7.55
2023-04-11T19:53:15.065Z,7.49
2023-04-11T19:55:45.163Z,7.54
2023-04-11T19:58:13.638Z,7.50
2023-04-11T20:00:43.209Z,7.49
2023-04-11T20:03:14.587Z,7.39
2023-04-11T20:05:43.245Z,7.34
2023-04-11T20:08:11.569Z,7.33
2023-04-11T20:10:40.418Z,7.25
2023-04-11T20:13:08.622Z,7.25
2023-04-11T20:15:36.854Z,7.22
2023-04-11T20:18:07.139Z,7.23
2023-04-11T20:20:36.944Z,7.20
2023-04-11T20:23:06.465Z,7.22
2023-04-11T20:25:35.005Z,7.24
2023-04-11T20:28:03.670Z,7.25
2023-04-11T20:30:32.596Z,7.28
2023-04-11T20:33:01.787Z,7.32
2023-04-11T20:35:31.519Z,7.32
2023-04-11T20:37:59.849Z,7.28
2023-04-11T20:40:28.078Z,7.28
2023-04-11T20:42:57.417Z,7.25
2023-04-11T20:45:27.872Z,7.23
2023-04-11T20:47:57.838Z,7.15
2023-04-11T20:50:25.993Z,7.24
2023-04-11T20:52:55.505Z,7.25
2023-04-11T20:55:25.318Z,7.18
2023-04-11T20:57:53.605Z,7.21
2023-04-11T21:00:22.109Z,7.17
2023-04-11T21:02:51.663Z,7.11
2023-04-11T21:05:22.117Z,7.11
2023-04-11T21:07:50.273Z,7.07
2023-04-11T21:10:20.989Z,7.05
2023-04-11T21:12:51.857Z,7.04
2023-04-11T21:15:20.663Z,6.98
2023-04-11T21:17:49.010Z,6.89
2023-04-11T21:20:20.665Z,6.84
2023-04-11T21:22:50.907Z,6.78
2023-04-11T21:25:20.927Z,6.74
2023-04-11T21:27:49.929Z,6.77
2023-04-11T21:30:19.564Z,6.75
2023-04-11T21:32:47.907Z,6.74
2023-04-11T21:35:16.291Z,6.71
2023-04-11T21:37:45.466Z,6.65
2023-04-11T21:40:14.703Z,6.61
2023-04-11T21:42:44.149Z,6.56
2023-04-11T21:45:12.404Z,6.59
2023-04-11T21:47:40.624Z,6.61
2023-04-11T21:50:10.153Z,6.54
2023-04-11T21:52:38.320Z,6.47
2023-04-11T21:55:08.976Z,6.39
2023-04-11T21:57:37.435Z,6.35
2023-04-11T22:00:11.142Z,6.32
2023-04-11T22:02:39.683Z,6.28
2023-04-11T22:05:09.584Z,6.27
2023-04-11T22:07:47.629Z,6.29
2023-04-11T22:10:27.027Z,6.31
2023-04-11T22:12:58.614Z,6.29
2023-04-11T22:15:33.224Z,6.33
2023-04-11T22:18:02.476Z,6.36
2023-04-11T22:20:30.749Z,6.32
2023-04-11T22:22:58.786Z,6.30
2023-04-11T22:25:27.438Z,6.26
2023-04-11T22:27:55.626Z,6.23
2023-04-11T22:30:24.950Z,6.25
2023-04-11T22:32:55.675Z,6.22
2023-04-11T22:35:24.966Z,6.16
2023-04-11T22:37:55.478Z,6.14
2023-04-11T22:40:23.757Z,6.08
2023-04-11T22:42:53.042Z,6.08
2023-04-11T22:45:22.075Z,6.06
2023-04-11T22:47:54.480Z,6.03
2023-04-11T22:50:24.367Z,6.02
2023-04-11T22:52:54.823Z,5.98
2023-04-11T22:55:24.862Z,5.95
2023-04-11T22:57:53.726Z,5.90
2023-04-11T23:00:24.223Z,5.90
2023-04-11T23:02:52.622Z,5.90
2023-04-11T23:05:20.857Z,5.84
2023-04-11T23:07:50.489Z,5.86
2023-04-11T23:10:19.295Z,5.84
2023-04-11T23:12:49.458Z,5.80
2023-04-11T23:15:18.009Z,5.85
2023-04-11T23:17:46.243Z,5.84
2023-04-11T23:20:14.497Z,5.79
2023-04-11T23:22:44.032Z,5.86
2023-04-11T23:25:15.209Z,5.89
2023-04-11T23:27:44.114Z,5.87
2023-04-11T23:30:15.157Z,5.82
2023-04-11T23:32:43.404Z,5.82
2023-04-11T23:35:11.910Z,5.84
2023-04-11T23:37:41.029Z,5.84
2023-04-11T23:40:14.078Z,5.81
2023-04-11T23:42:43.828Z,5.78
2023-04-11T23:45:14.993Z,5.74
2023-04-11T23:47:43.134Z,5.65
2023-04-11T23:50:12.276Z,5.68
2023-04-11T23:52:40.772Z,5.64
2023-04-11T23:55:09.761Z,5.64
2023-04-11T23:57:37.985Z,5.61
